createdAt,value
2023-02-22T00:02:37.564Z,4.07
2023-02-22T00:05:48.641Z,2.60
2023-02-22T00:08:57.234Z,2.80
2023-02-22T00:12:05.796Z,2.73
2023-02-22T00:15:16.990Z,2.17
2023-02-22T00:18:27.908Z,2.97
2023-02-22T00:21:38.221Z,1.33
2023-02-22T00:24:46.440Z,2.87
2023-02-22T00:27:54.996Z,2.00
2023-02-22T00:31:05.252Z,2.40
2023-02-22T00:34:15.119Z,2.50
2023-02-22T00:37:24.639Z,1.33
2023-02-22T00:40:35.535Z,2.13
2023-02-22T00:43:43.788Z,2.80
2023-02-22T00:46:53.811Z,2.00
2023-02-22T00:50:04.140Z,3.47
2023-02-22T00:53:13.657Z,1.43
2023-02-22T00:56:21.989Z,2.27
2023-02-22T00:59:31.130Z,3.17
2023-02-22T01:02:39.834Z,1.80
2023-02-22T01:05:49.108Z,2.20
2023-02-22T01:08:58.818Z,1.87
2023-02-22T01:12:08.042Z,1.57
2023-02-22T01:15:21.633Z,2.20
2023-02-22T01:18:29.819Z,1.20
2023-02-22T01:21:38.039Z,4.37
2023-02-22T01:24:47.728Z,2.80
2023-02-22T01:27:58.631Z,2.30
2023-02-22T01:31:07.386Z,1.50
2023-02-22T01:34:17.366Z,1.20
2023-02-22T01:37:25.532Z,1.47
2023-02-22T01:40:37.476Z,1.50
2023-02-22T01:43:46.478Z,1.00
2023-02-22T01:46:56.856Z,1.10
2023-02-22T01:50:05.293Z,3.13
2023-02-22T01:53:18.508Z,2.03
2023-02-22T01:56:33.652Z,2.50
2023-02-22T01:59:47.205Z,2.60
2023-02-22T02:03:12.950Z,2.03
2023-02-22T02:06:22.096Z,2.87
2023-02-22T02:09:37.440Z,1.20
2023-02-22T02:12:51.015Z,1.33
2023-02-22T02:15:59.315Z,1.80
2023-02-22T02:19:20.321Z,2.43
2023-02-22T02:22:47.716Z,1.20
2023-02-22T02:26:35.371Z,2.60
2023-02-22T02:30:49.804Z,2.60
2023-02-22T02:34:11.604Z,1.87
2023-02-22T02:37:34.196Z,1.73
2023-02-22T02:40:53.946Z,2.97
2023-02-22T02:44:12.080Z,1.10
2023-02-22T02:47:28.939Z,2.03
2023-02-22T02:50:46.102Z,2.03
2023-02-22T02:53:55.735Z,1.77
2023-02-22T02:57:05.655Z,1.83
2023-02-22T03:00:24.149Z,2.60
2023-02-22T03:04:17.473Z,3.37
2023-02-22T03:07:45.756Z,2.37
2023-02-22T03:11:05.560Z,2.67
2023-02-22T03:14:36.913Z,1.67
2023-02-22T03:17:55.052Z,2.03
2023-02-22T03:21:16.883Z,2.07
2023-02-22T03:24:38.557Z,3.73
2023-02-22T03:27:53.288Z,1.63
2023-02-22T03:31:07.243Z,3.97
2023-02-22T03:34:23.499Z,2.20
2023-02-22T03:37:37.473Z,2.83
2023-02-22T03:40:55.493Z,1.23
2023-02-22T03:44:09.563Z,1.57
2023-02-22T03:47:28.669Z,5.03
2023-02-22T03:50:39.894Z,2.97
2023-02-22T03:53:49.622Z,1.90
2023-02-22T03:57:09.715Z,2.00
2023-02-22T04:00:25.508Z,1.80
2023-02-22T04:03:33.723Z,1.40
2023-02-22T04:06:43.608Z,1.53
2023-02-22T04:09:53.095Z,3.17
2023-02-22T04:13:02.926Z,1.77
2023-02-22T04:16:11.310Z,3.50
2023-02-22T04:19:20.000Z,1.60
2023-02-22T04:22:28.197Z,4.67
2023-02-22T04:25:36.791Z,2.27
2023-02-22T04:28:53.662Z,3.10
2023-02-22T04:32:06.280Z,2.07
2023-02-22T04:35:14.829Z,1.57
2023-02-22T04:38:25.945Z,1.20
2023-02-22T04:41:36.369Z,2.23
2023-02-22T04:44:46.209Z,2.20
2023-02-22T04:47:54.685Z,2.67
2023-02-22T04:51:03.601Z,4.37
2023-02-22T04:54:14.126Z,4.87
2023-02-22T05:00:57.525Z,2.83
2023-02-22T05:04:07.647Z,3.93
2023-02-22T05:07:16.112Z,1.43
2023-02-22T05:10:24.801Z,3.50
2023-02-22T05:13:33.313Z,3.17
2023-02-22T05:16:42.988Z,2.43
2023-02-22T05:19:51.217Z,4.83
2023-02-22T05:23:02.067Z,1.87
2023-02-22T05:26:11.718Z,2.30
2023-02-22T05:29:21.107Z,4.53
2023-02-22T05:32:30.964Z,3.43
2023-02-22T05:35:39.216Z,1.73
2023-02-22T05:38:47.600Z,2.30
2023-02-22T05:41:56.001Z,2.20
2023-02-22T05:45:06.551Z,4.20
2023-02-22T05:48:17.073Z,5.87
2023-02-22T05:51:25.262Z,3.00
2023-02-22T05:54:33.389Z,3.23
2023-02-22T05:57:41.498Z,1.73
2023-02-22T06:00:49.899Z,2.60
2023-02-22T06:04:00.191Z,2.73
2023-02-22T06:07:08.521Z,2.30
2023-02-22T06:10:17.312Z,2.33
2023-02-22T06:13:25.765Z,1.93
2023-02-22T06:16:33.935Z,5.60
2023-02-22T06:19:43.986Z,4.50
2023-02-22T06:22:54.715Z,3.83
2023-02-22T06:26:02.830Z,11.27
2023-02-22T06:29:11.048Z,35.17
2023-02-22T06:32:19.202Z,31.00
2023-02-22T06:35:28.757Z,3.53
2023-02-22T06:38:37.140Z,2.90
2023-02-22T06:41:47.013Z,1.83
2023-02-22T06:44:55.193Z,1.60
2023-02-22T06:48:03.496Z,3.40
2023-02-22T06:51:13.292Z,2.37
2023-02-22T06:54:23.245Z,4.13
2023-02-22T06:57:31.375Z,4.10
2023-02-22T07:00:39.786Z,3.00
2023-02-22T07:03:50.503Z,2.77
2023-02-22T07:07:00.546Z,2.23
2023-02-22T07:10:16.895Z,2.83
2023-02-22T07:13:25.470Z,1.87
2023-02-22T07:16:33.748Z,3.63
2023-02-22T07:19:41.927Z,2.30
2023-02-22T07:22:51.884Z,2.63
2023-02-22T07:26:02.142Z,2.93
2023-02-22T07:29:11.330Z,3.73
2023-02-22T07:32:20.001Z,4.27
2023-02-22T07:35:33.660Z,7.63
2023-02-22T07:38:43.236Z,16.47
2023-02-22T07:41:51.422Z,12.43
2023-02-22T07:45:07.193Z,5.10
2023-02-22T07:48:18.487Z,2.27
2023-02-22T07:51:27.083Z,3.40
2023-02-22T07:54:37.995Z,2.83
2023-02-22T07:57:47.585Z,3.20
2023-02-22T08:00:59.270Z,2.37
2023-02-22T08:04:07.496Z,2.97
2023-02-22T08:07:15.890Z,1.70
2023-02-22T08:10:28.309Z,2.27
2023-02-22T08:13:37.488Z,2.00
2023-02-22T08:16:46.280Z,1.60
2023-02-22T08:19:54.804Z,2.70
2023-02-22T08:23:04.910Z,2.10
2023-02-22T08:26:18.491Z,2.83
2023-02-22T08:29:33.497Z,1.60
2023-02-22T08:32:42.095Z,1.27
2023-02-22T08:35:51.693Z,3.43
2023-02-22T08:39:00.641Z,1.20
2023-02-22T08:42:10.850Z,2.13
2023-02-22T08:45:19.830Z,1.83
2023-02-22T08:48:28.256Z,2.37
2023-02-22T08:51:37.819Z,2.30
2023-02-22T08:54:47.565Z,2.60
2023-02-22T08:57:57.064Z,0.93
2023-02-22T09:01:05.595Z,0.80
2023-02-22T09:04:14.124Z,2.07
2023-02-22T09:07:22.312Z,1.40
2023-02-22T09:10:34.259Z,3.40
2023-02-22T09:13:43.760Z,0.90
2023-02-22T09:16:52.281Z,2.50
2023-02-22T09:20:00.450Z,0.73
2023-02-22T09:23:10.656Z,1.60
2023-02-22T09:26:18.863Z,1.83
2023-02-22T09:29:29.442Z,0.63
2023-02-22T09:32:38.568Z,0.80
2023-02-22T09:35:50.175Z,0.53
2023-02-22T09:38:58.907Z,1.87
2023-02-22T09:42:17.261Z,1.17
2023-02-22T09:45:38.869Z,0.60
2023-02-22T09:49:07.308Z,1.27
2023-02-22T09:52:22.864Z,1.23
2023-02-22T09:55:38.652Z,0.73
2023-02-22T09:58:52.345Z,1.30
2023-02-22T10:02:20.305Z,0.50
2023-02-22T10:05:37.471Z,0.40
2023-02-22T10:08:46.231Z,1.17
2023-02-22T10:12:01.672Z,1.50
2023-02-22T10:15:41.213Z,1.63
2023-02-22T10:19:20.540Z,0.40
2023-02-22T10:22:56.718Z,2.77
2023-02-22T10:26:19.905Z,0.67
2023-02-22T10:29:37.694Z,0.40
2023-02-22T10:32:54.513Z,0.40
2023-02-22T10:36:04.858Z,0.87
2023-02-22T10:39:27.414Z,0.40
2023-02-22T10:42:35.827Z,3.43
2023-02-22T10:45:44.327Z,1.30
2023-02-22T10:48:57.821Z,1.90
2023-02-22T10:52:19.175Z,0.40
2023-02-22T10:55:27.859Z,0.70
2023-02-22T10:58:44.710Z,0.47
2023-02-22T11:01:53.420Z,0.40
2023-02-22T11:05:06.103Z,0.40
2023-02-22T11:08:28.165Z,2.70
2023-02-22T11:11:36.285Z,0.43
2023-02-22T11:14:44.432Z,0.30
2023-02-22T11:17:56.159Z,0.67
2023-02-22T11:21:10.194Z,0.77
2023-02-22T11:24:24.132Z,1.17
2023-02-22T11:27:43.759Z,0.63
2023-02-22T11:30:53.355Z,0.10
2023-02-22T11:34:04.881Z,0.57
2023-02-22T11:37:31.232Z,14.87
2023-02-22T11:40:40.826Z,6.07
2023-02-22T11:43:52.187Z,1.37
2023-02-22T11:47:06.929Z,2.77
2023-02-22T11:50:29.485Z,5.83
2023-02-22T11:54:04.728Z,3.27
2023-02-22T11:57:37.238Z,5.07
2023-02-22T12:00:55.711Z,1.50
2023-02-22T12:04:40.922Z,5.50
2023-02-22T12:08:19.316Z,2.73
2023-02-22T12:11:41.058Z,0.50
2023-02-22T12:15:01.916Z,0.70
2023-02-22T12:18:22.818Z,1.83
2023-02-22T12:21:34.766Z,2.10
2023-02-22T12:24:51.604Z,0.30
2023-02-22T12:28:24.697Z,0.50
2023-02-22T12:31:44.194Z,0.93
2023-02-22T12:34:59.500Z,1.77
2023-02-22T12:38:23.172Z,2.00
2023-02-22T12:41:41.435Z,0.50
2023-02-22T12:45:02.238Z,0.50
2023-02-22T12:48:31.478Z,0.50
2023-02-22T12:51:48.460Z,0.30
2023-02-22T12:55:07.517Z,26.07
2023-02-22T12:58:27.039Z,0.50
2023-02-22T13:01:40.850Z,0.40
2023-02-22T13:04:50.870Z,0.90
2023-02-22T13:08:23.449Z,0.60
2023-02-22T13:11:43.383Z,1.53
2023-02-22T13:15:09.423Z,1.20
2023-02-22T13:18:30.183Z,1.73
2023-02-22T13:21:50.579Z,1.03
2023-02-22T13:25:09.575Z,0.50
2023-02-22T13:28:30.141Z,0.60
2023-02-22T13:32:10.598Z,0.60
2023-02-22T13:35:52.245Z,0.50
2023-02-22T13:39:43.465Z,1.43
2023-02-22T13:43:23.956Z,0.93
2023-02-22T13:47:28.676Z,3.50
2023-02-22T13:51:14.984Z,1.20
2023-02-22T13:54:35.404Z,0.63
2023-02-22T13:58:00.147Z,0.60
2023-02-22T14:01:55.000Z,1.17
2023-02-22T14:05:53.264Z,1.30
2023-02-22T14:09:13.495Z,0.70
2023-02-22T14:12:52.464Z,1.83
2023-02-22T14:16:25.626Z,0.60
2023-02-22T14:19:34.375Z,1.00
2023-02-22T14:22:45.623Z,0.60
2023-02-22T14:25:55.685Z,0.60
2023-02-22T14:29:20.437Z,0.50
2023-02-22T14:32:33.932Z,0.70
2023-02-22T14:35:49.746Z,1.63
2023-02-22T14:39:09.488Z,1.03
2023-02-22T14:42:25.522Z,2.93
2023-02-22T14:45:43.516Z,1.83
2023-02-22T14:49:00.791Z,1.87
2023-02-22T14:52:23.654Z,1.00
2023-02-22T14:55:35.034Z,0.77
2023-02-22T14:58:49.544Z,0.70
2023-02-22T15:02:14.911Z,1.20
2023-02-22T15:05:23.193Z,0.60
2023-02-22T15:08:32.139Z,1.53
2023-02-22T15:11:40.333Z,1.57
2023-02-22T15:14:49.714Z,1.97
2023-02-22T15:17:59.845Z,1.40
2023-02-22T15:21:16.190Z,1.23
2023-02-22T15:24:29.197Z,1.57
2023-02-22T15:27:39.103Z,1.67
2023-02-22T15:30:47.490Z,2.07
2023-02-22T15:33:57.336Z,1.67
2023-02-22T15:37:25.475Z,1.30
2023-02-22T15:40:35.848Z,1.10
2023-02-22T15:43:43.997Z,1.03
2023-02-22T15:46:54.421Z,1.10
2023-02-22T15:50:23.500Z,2.40
2023-02-22T15:53:43.521Z,3.03
2023-02-22T15:56:56.607Z,2.20
2023-02-22T16:00:06.662Z,2.40
2023-02-22T16:03:27.392Z,2.07
2023-02-22T16:06:41.592Z,5.70
2023-02-22T16:09:52.471Z,5.07
2023-02-22T16:13:30.993Z,4.23
2023-02-22T16:16:41.595Z,2.27
2023-02-22T16:19:50.475Z,2.87
2023-02-22T16:23:00.239Z,1.07
2023-02-22T16:26:23.605Z,1.17
2023-02-22T16:29:32.092Z,2.33
2023-02-22T16:32:42.347Z,1.10
2023-02-22T16:35:52.944Z,3.23
2023-02-22T16:39:02.679Z,1.90
2023-02-22T16:42:11.112Z,1.47
2023-02-22T16:45:21.052Z,3.00
2023-02-22T16:48:32.588Z,2.30
2023-02-22T16:51:46.717Z,9.77
2023-02-22T16:54:56.238Z,7.13
2023-02-22T17:01:46.979Z,2.87
2023-02-22T17:04:55.129Z,2.63
2023-02-22T17:08:03.721Z,2.53
2023-02-22T17:11:15.633Z,3.20
2023-02-22T17:14:31.881Z,4.07
2023-02-22T17:17:40.009Z,3.57
2023-02-22T17:20:48.522Z,7.87
2023-02-22T17:23:57.075Z,7.00
2023-02-22T17:27:06.692Z,5.80
2023-02-22T17:30:23.828Z,9.27
2023-02-22T17:33:36.707Z,9.63
2023-02-22T17:36:44.817Z,5.30
2023-02-22T17:39:53.260Z,6.00
2023-02-22T17:43:03.818Z,3.93
2023-02-22T17:46:12.201Z,4.90
2023-02-22T17:49:20.557Z,4.40
2023-02-22T17:52:30.152Z,7.30
2023-02-22T17:55:40.634Z,5.40
2023-02-22T17:58:55.646Z,6.10
2023-02-22T18:02:04.032Z,9.23
2023-02-22T18:05:16.233Z,13.67
2023-02-22T18:08:25.278Z,8.93
2023-02-22T18:11:33.379Z,5.80
2023-02-22T18:14:43.190Z,8.20
2023-02-22T18:17:51.371Z,4.10
2023-02-22T18:21:00.597Z,7.43
2023-02-22T18:24:09.051Z,4.03
2023-02-22T18:27:17.302Z,4.33
2023-02-22T18:30:27.404Z,6.37
2023-02-22T18:33:35.567Z,6.10
2023-02-22T18:36:43.726Z,7.23
2023-02-22T18:39:52.024Z,4.73
2023-02-22T18:43:00.291Z,6.13
2023-02-22T18:46:13.383Z,8.93
2023-02-22T18:49:21.776Z,7.00
2023-02-22T18:52:31.042Z,4.23
2023-02-22T18:55:39.337Z,6.87
2023-02-22T18:58:47.410Z,5.03
2023-02-22T19:01:57.512Z,6.97
2023-02-22T19:05:07.320Z,4.13
2023-02-22T19:08:15.636Z,3.57
2023-02-22T19:11:25.797Z,6.20
2023-02-22T19:14:34.129Z,3.10
2023-02-22T19:17:45.132Z,4.63
2023-02-22T19:20:57.482Z,3.00
2023-02-22T19:24:06.973Z,2.87
2023-02-22T19:27:15.505Z,2.53
2023-02-22T19:30:24.761Z,3.77
2023-02-22T19:33:37.511Z,7.10
2023-02-22T19:36:47.327Z,3.90
2023-02-22T19:39:55.488Z,5.93
2023-02-22T19:43:03.573Z,3.17
2023-02-22T19:46:12.953Z,5.07
2023-02-22T19:49:22.817Z,4.57
2023-02-22T19:52:30.972Z,6.77
2023-02-22T19:55:39.089Z,6.30
2023-02-22T19:58:51.117Z,7.73
2023-02-22T20:01:59.350Z,6.63
2023-02-22T20:05:16.316Z,7.17
2023-02-22T20:08:26.480Z,6.40
2023-02-22T20:11:35.274Z,6.30
2023-02-22T20:14:43.812Z,6.70
2023-02-22T20:17:52.630Z,6.87
2023-02-22T20:21:08.176Z,5.63
2023-02-22T20:24:18.389Z,7.63
2023-02-22T20:27:26.568Z,7.23
2023-02-22T20:30:34.651Z,8.93
2023-02-22T20:33:43.645Z,5.50
2023-02-22T20:36:54.372Z,6.17
2023-02-22T20:40:04.916Z,8.87
2023-02-22T20:43:13.499Z,6.97
2023-02-22T20:46:23.326Z,8.73
2023-02-22T20:49:31.562Z,9.50
2023-02-22T20:52:40.996Z,7.97
2023-02-22T20:55:55.651Z,12.73
2023-02-22T20:59:06.037Z,9.23
2023-02-22T21:02:14.179Z,9.60
2023-02-22T21:05:22.507Z,9.80
2023-02-22T21:08:33.248Z,11.20
2023-02-22T21:11:42.423Z,8.20
2023-02-22T21:14:51.206Z,9.90
2023-02-22T21:17:59.376Z,9.50
2023-02-22T21:21:10.375Z,11.93
2023-02-22T21:24:19.973Z,7.67
2023-02-22T21:27:28.190Z,9.93
2023-02-22T21:30:36.497Z,7.83
2023-02-22T21:33:44.893Z,9.63
2023-02-22T21:36:54.260Z,11.97
2023-02-22T21:40:10.188Z,9.43
2023-02-22T21:43:19.020Z,10.70
2023-02-22T21:46:29.078Z,8.37
2023-02-22T21:49:38.002Z,9.30
2023-02-22T21:52:49.738Z,9.30
2023-02-22T21:56:05.472Z,9.67
2023-02-22T21:59:18.828Z,8.13
2023-02-22T22:02:29.138Z,8.57
2023-02-22T22:05:40.720Z,8.43
2023-02-22T22:08:50.387Z,8.97
2023-02-22T22:12:05.067Z,9.43
2023-02-22T22:15:16.452Z,7.43
2023-02-22T22:18:24.811Z,8.30
2023-02-22T22:21:33.583Z,7.27
2023-02-22T22:24:45.722Z,6.93
2023-02-22T22:27:56.167Z,8.37
2023-02-22T22:31:04.652Z,9.57
2023-02-22T22:34:13.191Z,8.80
2023-02-22T22:37:22.629Z,9.47
2023-02-22T22:40:34.247Z,9.37
2023-02-22T22:43:46.126Z,10.57
2023-02-22T22:46:54.816Z,8.30
2023-02-22T22:50:03.253Z,9.63
2023-02-22T22:53:11.783Z,7.27
2023-02-22T22:56:26.319Z,9.87
2023-02-22T22:59:37.246Z,8.33
2023-02-22T23:02:48.688Z,8.40
2023-02-22T23:06:02.189Z,7.07
2023-02-22T23:09:18.697Z,9.27
2023-02-22T23:12:31.527Z,8.63
2023-02-22T23:15:47.537Z,7.80
2023-02-22T23:18:56.413Z,7.73
2023-02-22T23:22:07.063Z,7.93
2023-02-22T23:25:15.842Z,8.57
2023-02-22T23:28:24.071Z,10.03
2023-02-22T23:31:33.678Z,9.43
2023-02-22T23:34:41.956Z,7.87
2023-02-22T23:37:53.392Z,9.63
2023-02-22T23:41:04.501Z,9.50
2023-02-22T23:44:17.710Z,7.40
2023-02-22T23:47:31.733Z,8.07
2023-02-22T23:50:40.075Z,7.07
2023-02-22T23:53:49.549Z,6.70
2023-02-22T23:56:57.800Z,9.37
